Time;durP1;ratioP1;P1;durP2;ratioP2;P2;SDS_P1;SDS_P2;PMS_P1;PMS_P2;Temp;Humidity;BMP_temperature;BMP_pressure;BME280_temperature;BME280_humidity;BME280_pressure;Samples;Min_cycle;Max_cycle;Signal;HPM_P1;HPM_P2
2024/01/27 00:01:29;;;;;;;10.43;3.50;;;;;;;1.86;61.84;95542.63;5041432;28;20068;-84
2024/01/27 00:03:54;;;;;;;10.05;3.70;;;;;;;2.71;61.72;95645.13;5034278;28;20569;-84
2024/01/27 00:06:20;;;;;;;17.40;4.80;;;;;;;2.79;61.48;95655.34;5026268;28;20037;-79
2024/01/27 00:08:45;;;;;;;7.90;3.08;;;;;;;2.49;62.03;95625.56;5042359;28;20078;-79
2024/01/27 00:11:11;;;;;;;8.55;3.90;;;;;;;2.62;61.65;95639.34;5038904;28;20496;-78
2024/01/27 00:13:37;;;;;;;12.68;3.85;;;;;;;2.98;61.42;95693.69;5048541;28;20048;-80
2024/01/27 00:16:03;;;;;;;10.15;3.55;;;;;;;2.96;61.62;95694.94;5028854;28;20079;-79
2024/01/27 00:18:28;;;;;;;10.93;4.00;;;;;;;2.32;61.33;95567.69;5050249;28;20040;-79
2024/01/27 00:20:54;;;;;;;13.73;4.03;;;;;;;2.39;61.31;95571.03;5060345;28;20062;-79
2024/01/27 00:23:19;;;;;;;11.98;4.05;;;;;;;2.31;61.35;95550.38;5058559;28;20036;-78
2024/01/27 00:25:45;;;;;;;8.63;3.50;;;;;;;2.32;61.31;95550.16;5081954;28;20036;-78
2024/01/27 00:28:10;;;;;;;11.85;4.05;;;;;;;2.08;61.60;95519.53;5067073;28;20051;-80
2024/01/27 00:30:36;;;;;;;23.73;4.15;;;;;;;3.03;62.02;95699.09;5078628;28;20074;-78
2024/01/27 00:33:02;;;;;;;12.60;4.03;;;;;;;2.42;62.17;95585.53;5058865;28;20029;-79
2024/01/27 00:35:27;;;;;;;9.68;3.42;;;;;;;2.80;62.07;95646.47;5019982;28;20033;-79
2024/01/27 00:37:53;;;;;;;9.52;4.35;;;;;;;2.43;62.32;95603.66;5083072;28;20070;-80
2024/01/27 00:40:18;;;;;;;10.43;3.33;;;;;;;2.52;62.75;95615.44;5075108;28;20123;-78
2024/01/27 00:42:44;;;;;;;7.68;3.42;;;;;;;2.99;62.18;95674.34;5057115;28;20147;-79
2024/01/27 00:45:09;;;;;;;11.80;3.35;;;;;;;3.06;62.36;95688.19;5032594;28;20044;-80
2024/01/27 00:47:35;;;;;;;7.45;3.92;;;;;;;2.78;62.21;95631.97;5044506;28;20497;-79
2024/01/27 00:50:00;;;;;;;9.40;3.85;;;;;;;2.88;62.01;95648.84;5086138;28;20401;-79
2024/01/27 00:52:26;;;;;;;13.25;3.80;;;;;;;2.05;62.25;95524.41;5054924;28;20531;-80
2024/01/27 00:54:52;;;;;;;11.75;3.92;;;;;;;1.71;62.41;95463.66;5051926;28;20049;-78
2024/01/27 00:57:17;;;;;;;14.35;4.00;;;;;;;2.70;62.17;95619.97;5030795;28;20043;-80
2024/01/27 00:59:43;;;;;;;13.65;3.75;;;;;;;2.83;62.24;95650.47;5052478;28;20036;-80
2024/01/27 01:02:09;;;;;;;13.77;4.22;;;;;;;2.79;62.45;95630.97;5022422;28;20083;-79
2024/01/27 01:04:34;;;;;;;12.65;3.72;;;;;;;2.52;62.20;95599.75;5024633;28;20102;-79
2024/01/27 01:07:00;;;;;;;19.02;4.70;;;;;;;2.50;62.56;95588.69;5035713;28;20040;-78
2024/01/27 01:09:25;;;;;;;11.80;3.47;;;;;;;2.75;62.72;95627.97;5038624;28;20489;-80
2024/01/27 01:11:51;;;;;;;14.10;4.82;;;;;;;3.12;62.72;95673.44;5068292;28;20132;-80
2024/01/27 01:14:16;;;;;;;12.02;3.75;;;;;;;2.01;62.88;95513.53;5038237;28;20540;-81
2024/01/27 01:16:42;;;;;;;11.18;3.35;;;;;;;3.14;62.95;95689.72;5056828;28;20037;-82
2024/01/27 01:19:08;;;;;;;6.68;3.28;;;;;;;2.36;63.53;95581.16;5071456;28;20066;-82
2024/01/27 01:21:33;;;;;;;12.85;2.92;;;;;;;2.43;63.33;95600.22;5037412;28;20564;-82
2024/01/27 01:23:59;;;;;;;11.88;3.80;;;;;;;2.65;64.08;95635.53;5020893;28;20481;-82
2024/01/27 01:26:25;;;;;;;9.32;3.35;;;;;;;3.02;64.62;95702.75;5053679;28;20036;-81
2024/01/27 01:28:50;;;;;;;13.38;3.30;;;;;;;3.03;64.25;95693.88;5050947;28;20044;-82
2024/01/27 01:31:16;;;;;;;13.75;3.78;;;;;;;3.02;64.36;95678.34;5053699;28;20065;-82
2024/01/27 01:33:42;;;;;;;12.70;3.47;;;;;;;2.83;64.04;95645.22;5052650;28;20058;-81
2024/01/27 01:36:08;;;;;;;11.75;3.88;;;;;;;3.10;64.27;95673.66;5057028;28;20048;-82
2024/01/27 01:38:33;;;;;;;11.15;3.28;;;;;;;3.13;64.14;95676.88;5056475;28;20040;-82
2024/01/27 01:40:59;;;;;;;13.32;3.83;;;;;;;2.72;64.25;95623.97;5061079;28;20049;-82
2024/01/27 01:43:24;;;;;;;11.27;3.47;;;;;;;3.09;63.96;95671.22;5016528;28;20444;-82
2024/01/27 01:45:53;;;;;;;10.55;2.97;;;;;;;3.03;63.99;95667.66;5048435;28;20047;-82
2024/01/27 01:48:18;;;;;;;13.07;3.60;;;;;;;2.96;63.50;95640.72;5037361;28;20032;-81
2024/01/27 01:50:44;;;;;;;17.10;3.90;;;;;;;2.63;63.82;95590.41;5056620;28;20468;-82
2024/01/27 01:53:09;;;;;;;11.55;3.83;;;;;;;2.52;63.87;95583.22;5046322;28;20512;-82
2024/01/27 01:55:35;;;;;;;9.50;3.45;;;;;;;2.70;63.56;95601.63;5037755;28;20044;-82
2024/01/27 01:58:01;;;;;;;11.38;3.10;;;;;;;2.82;63.28;95626.13;5053948;28;20505;-81
2024/01/27 02:00:26;;;;;;;11.90;2.80;;;;;;;2.08;62.79;95477.69;5052887;28;20120;-82
2024/01/27 02:02:52;;;;;;;13.05;3.45;;;;;;;2.98;63.27;95625.56;5053669;28;20118;-82
2024/01/27 02:05:18;;;;;;;8.50;2.88;;;;;;;3.15;62.66;95623.19;5039195;28;20094;-82
2024/01/27 02:07:43;;;;;;;9.90;3.53;;;;;;;3.25;62.47;95636.63;5052901;28;20048;-82
2024/01/27 02:10:16;;;;;;;11.18;3.95;;;;;;;3.32;62.35;95633.94;5039464;28;20043;-82
2024/01/27 02:12:45;;;;;;;12.00;3.45;;;;;;;3.16;62.06;95634.47;5047734;28;20047;-82
2024/01/27 02:15:12;;;;;;;10.38;3.30;;;;;;;3.08;61.78;95596.25;5033702;28;20535;-83
2024/01/27 02:17:38;;;;;;;14.63;3.40;;;;;;;3.32;61.36;95621.63;5037355;28;20036;-82
2024/01/27 02:20:06;;;;;;;9.65;2.67;;;;;;;3.39;61.11;95637.28;5053512;28;20080;-82
2024/01/27 02:22:33;;;;;;;14.45;3.47;;;;;;;3.39;60.87;95627.59;5073815;28;20048;-82
2024/01/27 02:24:58;;;;;;;9.30;2.55;;;;;;;3.48;60.44;95630.75;5051410;28;20041;-82
2024/01/27 02:27:24;;;;;;;10.93;3.53;;;;;;;2.81;60.01;95524.19;5045920;28;20062;-78
2024/01/27 02:29:49;;;;;;;12.38;3.33;;;;;;;3.39;60.49;95611.06;5014011;28;20038;-78
2024/01/27 02:32:15;;;;;;;11.15;3.45;;;;;;;2.50;60.25;95477.94;5038325;28;20032;-80
2024/01/27 02:34:41;;;;;;;11.02;3.58;;;;;;;3.15;60.76;95583.09;5052574;28;20044;-79
2024/01/27 02:37:06;;;;;;;12.48;4.13;;;;;;;2.77;60.95;95521.19;5054925;28;20043;-79
2024/01/27 02:39:32;;;;;;;17.77;4.50;;;;;;;2.90;60.95;95559.56;5057318;28;20109;-79
2024/01/27 02:41:57;;;;;;;13.77;4.22;;;;;;;3.10;61.30;95607.31;5055152;28;20047;-80
2024/01/27 02:44:23;;;;;;;11.68;4.38;;;;;;;2.60;61.50;95541.06;5066928;28;20033;-81
2024/01/27 02:46:49;;;;;;;13.77;4.75;;;;;;;3.09;61.61;95606.53;5035443;28;20039;-80
2024/01/27 02:49:14;;;;;;;10.85;4.05;;;;;;;2.33;61.78;95490.78;5033018;28;20032;-79
2024/01/27 02:51:40;;;;;;;15.73;4.20;;;;;;;3.07;61.83;95599.88;5020621;28;20185;-78
2024/01/27 02:54:05;;;;;;;14.77;4.13;;;;;;;1.21;61.44;95315.66;5053716;28;20474;-79
2024/01/27 02:56:31;;;;;;;16.83;4.82;;;;;;;2.88;61.41;95551.09;5052491;28;20504;-80
2024/01/27 02:58:56;;;;;;;16.98;4.60;;;;;;;2.95;61.46;95552.66;5039981;28;20041;-79
2024/01/27 03:01:23;;;;;;;21.67;5.18;;;;;;;2.93;61.04;95557.28;5041335;28;20057;-81
2024/01/27 03:03:48;;;;;;;15.43;4.65;;;;;;;3.35;61.29;95621.19;5056309;28;20047;-79
2024/01/27 03:06:14;;;;;;;15.45;4.65;;;;;;;2.51;61.40;95518.81;5072902;28;20094;-79
2024/01/27 03:08:39;;;;;;;13.15;4.20;;;;;;;2.97;61.74;95599.59;5040150;28;20044;-80
2024/01/27 03:11:05;;;;;;;17.73;4.78;;;;;;;2.93;61.49;95593.97;5048195;28;20036;-80
2024/01/27 03:13:30;;;;;;;18.98;4.07;;;;;;;2.30;61.21;95504.28;5073117;28;20482;-79
2024/01/27 03:15:56;;;;;;;12.80;3.63;;;;;;;2.78;61.04;95556.84;5033075;28;20080;-79
2024/01/27 03:18:21;;;;;;;17.60;3.75;;;;;;;2.76;60.46;95561.47;5052021;28;20520;-78
2024/01/27 03:20:47;;;;;;;15.45;4.07;;;;;;;2.80;60.53;95562.66;5056650;28;20040;-79
2024/01/27 03:23:13;;;;;;;9.27;3.70;;;;;;;2.61;60.11;95500.78;5022483;28;20041;-80
2024/01/27 03:25:39;;;;;;;18.73;3.75;;;;;;;2.62;59.82;95497.94;5047579;28;20063;-79
2024/01/27 03:28:04;;;;;;;8.38;2.60;;;;;;;2.96;59.75;95559.50;5040490;28;20053;-81
2024/01/27 03:30:30;;;;;;;8.20;2.95;;;;;;;3.56;60.39;95640.94;5036679;28;20048;-80
2024/01/27 03:32:55;;;;;;;7.90;2.85;;;;;;;2.51;61.82;95485.59;5053731;28;20044;-80
2024/01/27 03:35:21;;;;;;;10.80;2.42;;;;;;;2.81;63.43;95522.38;5069167;28;20064;-81
2024/01/27 03:37:47;;;;;;;9.50;2.45;;;;;;;3.49;64.77;95633.16;5068170;28;20049;-90
2024/01/27 03:40:12;;;;;;;9.00;2.47;;;;;;;2.70;64.50;95502.09;5073836;23;20064;-89
2024/01/27 03:42:38;;;;;;;6.28;2.60;;;;;;;2.83;66.11;95532.59;5057908;28;20062;-88
2024/01/27 03:45:04;;;;;;;6.95;2.70;;;;;;;2.49;66.91;95474.53;5056698;28;20055;-88
2024/01/27 03:47:29;;;;;;;10.77;2.92;;;;;;;3.01;67.46;95567.50;5054762;28;20109;-88
2024/01/27 03:49:55;;;;;;;10.10;2.58;;;;;;;3.22;69.01;95581.19;5070858;28;20036;-88
2024/01/27 03:52:20;;;;;;;13.65;3.50;;;;;;;2.75;68.85;95531.06;5070555;28;20074;-89
2024/01/27 03:54:46;;;;;;;8.65;2.72;;;;;;;2.42;70.04;95460.69;5075467;28;20095;-86
2024/01/27 03:57:12;;;;;;;11.48;2.75;;;;;;;3.31;70.62;95630.50;5069762;28;20040;-86
2024/01/27 03:59:39;;;;;;;10.20;2.40;;;;;;;3.35;72.20;95615.97;5053395;28;20113;-87
2024/01/27 04:02:05;;;;;;;5.75;2.63;;;;;;;-0.70;72.13;94990.75;5043550;28;20151;-86
2024/01/27 04:04:30;;;;;;;13.50;2.83;;;;;;;0.89;72.10;95213.81;5046780;28;20036;-86
2024/01/27 04:06:56;;;;;;;9.30;2.67;;;;;;;3.40;72.63;95616.09;5068739;28;20040;-88
2024/01/27 04:09:21;;;;;;;7.63;1.92;;;;;;;2.84;73.35;95550.72;5059824;28;20029;-88
2024/01/27 04:11:47;;;;;;;6.70;2.33;;;;;;;3.14;74.24;95584.09;5074159;28;20039;-87
2024/01/27 04:14:13;;;;;;;10.73;2.60;;;;;;;1.89;74.63;95385.28;5048151;28;20042;-89
2024/01/27 04:16:39;;;;;;;7.88;2.65;;;;;;;2.60;74.99;95476.41;5052737;28;20040;-88
2024/01/27 04:19:05;;;;;;;9.40;2.78;;;;;;;1.08;74.53;95241.56;5066015;28;20045;-87
2024/01/27 04:21:30;;;;;;;5.18;2.38;;;;;;;3.18;75.31;95588.72;5043369;28;20099;-88
2024/01/27 04:23:56;;;;;;;7.93;3.28;;;;;;;2.65;75.54;95484.44;5044429;28;20043;-85
2024/01/27 04:26:21;;;;;;;8.15;2.90;;;;;;;2.84;74.30;95519.28;5046344;28;20036;-84
2024/01/27 04:28:47;;;;;;;10.95;2.70;;;;;;;2.75;75.08;95510.09;5072060;28;20548;-88
2024/01/27 04:31:12;;;;;;;11.27;2.97;;;;;;;2.45;74.82;95457.63;5047968;28;20049;-85
2024/01/27 04:33:39;;;;;;;9.25;3.10;;;;;;;2.15;75.46;95418.25;5067233;28;20100;-84
2024/01/27 04:36:06;;;;;;;4.50;2.40;;;;;;;3.39;75.43;95611.06;5072335;28;20092;-86
2024/01/27 04:38:32;;;;;;;16.67;3.33;;;;;;;2.53;74.78;95465.19;5059589;28;20044;-85
2024/01/27 04:40:58;;;;;;;9.13;2.80;;;;;;;2.80;74.40;95526.00;5052204;28;20491;-86
2024/01/27 04:43:23;;;;;;;13.27;3.38;;;;;;;3.24;74.59;95587.84;5058541;28;20118;-84
2024/01/27 04:45:49;;;;;;;12.73;2.88;;;;;;;2.93;75.21;95541.56;5074670;28;20130;-85
2024/01/27 04:48:15;;;;;;;11.00;3.20;;;;;;;3.26;76.16;95619.88;5040190;28;20095;-84
2024/01/27 04:50:40;;;;;;;13.93;3.30;;;;;;;1.39;75.51;95306.03;5059249;28;20036;-87
2024/01/27 04:53:06;;;;;;;7.43;2.50;;;;;;;2.94;75.03;95534.53;5051364;28;20343;-86
2024/01/27 04:55:32;;;;;;;8.50;3.30;;;;;;;2.50;76.14;95481.38;5043898;28;20560;-85
2024/01/27 04:57:58;;;;;;;11.23;3.08;;;;;;;1.24;76.42;95287.25;5044362;28;20648;-84
2024/01/27 05:00:26;;;;;;;8.75;2.70;;;;;;;2.64;77.29;95498.53;5076840;28;20040;-85
2024/01/27 05:02:52;;;;;;;9.60;2.72;;;;;;;2.07;76.80;95423.75;5061354;28;20048;-85
2024/01/27 05:05:17;;;;;;;8.45;3.28;;;;;;;3.42;77.71;95618.50;5061891;28;20100;-86
2024/01/27 05:07:43;;;;;;;8.43;2.72;;;;;;;2.92;78.28;95547.03;5043863;28;20490;-85
2024/01/27 05:10:11;;;;;;;13.98;3.25;;;;;;;3.24;78.52;95598.31;5056296;28;20066;-86
2024/01/27 05:12:37;;;;;;;7.85;2.72;;;;;;;2.91;78.41;95559.31;5049289;28;20059;-89
2024/01/27 05:15:03;;;;;;;8.02;3.47;;;;;;;1.41;79.16;95332.78;5066960;28;20460;-90
2024/01/27 05:17:28;;;;;;;10.57;4.32;;;;;;;1.26;78.98;95303.53;5067621;28;20161;-89
2024/01/27 05:19:54;;;;;;;9.35;3.55;;;;;;;2.48;79.57;95483.38;5055573;28;20041;-89
2024/01/27 05:22:19;;;;;;;14.80;4.25;;;;;;;2.79;80.51;95542.72;5062791;28;20037;-88
2024/01/27 05:24:45;;;;;;;13.02;4.03;;;;;;;2.45;80.25;95483.00;5064941;28;20036;-89
2024/01/27 05:27:11;;;;;;;17.38;8.23;;;;;;;1.26;81.01;95292.28;5051166;28;20464;-89
2024/01/27 05:29:39;;;;;;;18.08;5.60;;;;;;;1.90;80.94;95413.03;5049534;28;20044;-88
2024/01/27 05:32:05;;;;;;;14.60;7.45;;;;;;;0.93;81.46;95253.34;5046326;28;20043;-85
2024/01/27 05:34:31;;;;;;;21.38;7.85;;;;;;;0.53;81.56;95195.38;5046096;28;20144;-85
2024/01/27 05:36:56;;;;;;;15.63;6.07;;;;;;;2.70;82.17;95533.53;5043740;28;20102;-84
2024/01/27 05:39:22;;;;;;;13.10;5.80;;;;;;;3.25;82.88;95631.38;5056782;28;20124;-84
2024/01/27 05:41:47;;;;;;;18.02;5.75;;;;;;;2.65;83.20;95552.53;5026272;28;20048;-85
2024/01/27 05:44:13;;;;;;;15.90;6.05;;;;;;;1.26;83.78;95352.38;5058784;28;20217;-85
2024/01/27 05:46:38;;;;;;;16.60;5.88;;;;;;;1.30;84.00;95349.13;5048870;28;20131;-85
2024/01/27 05:49:04;;;;;;;14.40;5.40;;;;;;;0.99;83.83;95289.06;5057218;28;20171;-85
2024/01/27 05:51:31;;;;;;;6.78;4.10;;;;;;;3.00;83.73;95641.88;5032610;28;20032;-84
2024/01/27 05:54:00;;;;;;;15.45;5.00;;;;;;;2.53;84.59;95585.63;5039623;28;20460;-85
2024/01/27 05:56:26;;;;;;;16.40;5.68;;;;;;;2.22;85.02;95557.69;5043390;28;20490;-85
2024/01/27 05:58:52;;;;;;;10.07;4.47;;;;;;;2.25;86.16;95572.97;5053800;28;20076;-85
2024/01/27 06:01:18;;;;;;;14.75;4.95;;;;;;;2.61;86.13;95648.22;5067133;28;20477;-85
2024/01/27 06:03:44;;;;;;;16.00;4.95;;;;;;;2.54;86.82;95649.28;5038032;28;20115;-85
2024/01/27 06:06:09;;;;;;;21.15;5.40;;;;;;;2.11;86.87;95584.53;5018161;28;20052;-86
2024/01/27 06:08:35;;;;;;;13.30;5.10;;;;;;;2.52;87.17;95662.56;5052669;28;20428;-85
2024/01/27 06:11:01;;;;;;;11.00;5.28;;;;;;;1.78;87.29;95535.00;5057608;28;20040;-85
2024/01/27 06:13:26;;;;;;;15.77;5.28;;;;;;;1.80;86.87;95555.72;5043757;28;20151;-85
2024/01/27 06:15:52;;;;;;;16.25;5.15;;;;;;;1.88;87.72;95605.97;5040888;28;20106;-85
2024/01/27 06:18:17;;;;;;;13.70;5.20;;;;;;;1.83;88.79;95624.09;5042062;28;20481;-85
2024/01/27 06:20:44;;;;;;;21.33;6.45;;;;;;;1.84;89.28;95638.78;5026432;28;20036;-85
2024/01/27 06:23:09;;;;;;;13.20;5.10;;;;;;;2.18;88.93;95666.41;5026308;28;20390;-89
2024/01/27 06:25:35;;;;;;;13.45;5.28;;;;;;;1.51;88.85;95573.56;5069145;28;20037;-89
2024/01/27 06:28:00;;;;;;;19.35;6.20;;;;;;;1.84;88.86;95606.59;5029328;28;20100;-89
2024/01/27 06:30:26;;;;;;;16.65;5.68;;;;;;;0.67;88.90;95447.47;5037923;28;20456;-87
2024/01/27 06:32:52;;;;;;;14.43;6.43;;;;;;;1.80;89.18;95636.81;5023198;28;20041;-87
2024/01/27 06:35:17;;;;;;;29.00;7.20;;;;;;;0.34;88.92;95411.00;5040209;28;20047;-86
2024/01/27 06:37:43;;;;;;;21.17;7.95;;;;;;;2.20;89.31;95706.25;5041266;28;20049;-86
2024/01/27 06:40:09;;;;;;;27.00;6.63;;;;;;;1.39;89.73;95569.97;5037519;28;20098;-87
2024/01/27 06:42:35;;;;;;;18.98;6.03;;;;;;;0.82;89.64;95481.16;5053057;28;20113;-87
2024/01/27 06:45:00;;;;;;;18.85;6.30;;;;;;;2.22;89.15;95687.72;5052172;28;20484;-87
2024/01/27 06:47:26;;;;;;;13.43;5.40;;;;;;;2.35;89.03;95703.38;5039843;28;20044;-88
2024/01/27 06:49:51;;;;;;;9.70;4.65;;;;;;;2.14;88.70;95630.38;5046331;28;20041;-88
2024/01/27 06:52:17;;;;;;;10.73;3.75;;;;;;;2.77;88.63;95732.53;5043181;28;20047;-87
2024/01/27 06:54:44;;;;;;;4.95;2.67;;;;;;;2.11;87.81;95599.44;5056454;28;20040;-87
2024/01/27 06:57:22;;;;;;;5.57;2.58;;;;;;;3.06;87.22;95714.38;5039104;28;20044;-87
2024/01/27 06:59:57;;;;;;;3.42;2.13;;;;;;;2.55;85.79;95607.19;5081938;28;20084;-87
2024/01/27 07:02:23;;;;;;;4.88;2.08;;;;;;;2.50;85.70;95572.19;5038699;28;20052;-87
2024/01/27 07:04:49;;;;;;;2.67;1.65;;;;;;;2.72;83.84;95597.78;5052434;28;20080;-87
2024/01/27 07:07:14;;;;;;;5.35;2.28;;;;;;;3.17;83.03;95642.13;5021318;28;20044;-86
2024/01/27 07:09:40;;;;;;;2.47;1.60;;;;;;;3.41;82.37;95670.13;5048771;28;20075;-87
2024/01/27 07:12:06;;;;;;;4.53;1.88;;;;;;;3.46;82.05;95662.41;5034498;28;20066;-87
2024/01/27 07:14:31;;;;;;;6.47;2.80;;;;;;;3.73;82.09;95699.69;5047514;28;20044;-87
2024/01/27 07:16:57;;;;;;;5.32;2.33;;;;;;;1.56;80.65;95340.28;5041507;28;20036;-87
2024/01/27 07:19:22;;;;;;;7.03;2.50;;;;;;;3.81;79.54;95698.59;5043966;28;20053;-87
2024/01/27 07:21:48;;;;;;;3.45;2.15;;;;;;;1.36;80.00;95305.69;5043391;28;20079;-86
2024/01/27 07:24:13;;;;;;;4.20;2.42;;;;;;;2.81;79.16;95535.47;5039400;28;20040;-87
2024/01/27 07:26:39;;;;;;;3.97;2.25;;;;;;;3.89;78.83;95716.69;5040425;28;20056;-87
2024/01/27 07:29:05;;;;;;;5.53;2.40;;;;;;;3.47;79.16;95684.19;5032165;28;20131;-87
2024/01/27 07:31:31;;;;;;;6.70;2.00;;;;;;;3.20;78.18;95644.34;5040698;28;20045;-87
2024/01/27 07:33:56;;;;;;;4.35;2.00;;;;;;;1.10;78.15;95311.88;5046336;28;20055;-87
2024/01/27 07:36:22;;;;;;;3.53;2.08;;;;;;;2.35;78.33;95520.16;5047078;28;20127;-88
2024/01/27 07:38:47;;;;;;;4.78;2.03;;;;;;;3.78;78.60;95767.22;5045210;28;20045;-88
2024/01/27 07:41:13;;;;;;;3.47;1.95;;;;;;;-0.56;77.54;95125.13;5075507;28;20056;-87
2024/01/27 07:43:39;;;;;;;4.07;2.00;;;;;;;1.84;77.14;95484.47;5055916;28;20048;-90
2024/01/27 07:46:04;;;;;;;7.90;2.45;;;;;;;0.93;76.50;95363.81;5024474;28;20099;-89
2024/01/27 07:48:30;;;;;;;4.70;2.20;;;;;;;1.08;75.51;95384.41;5048653;28;20037;-90
2024/01/27 07:50:57;;;;;;;5.28;2.15;;;;;;;0.95;75.93;95368.81;5049952;28;20037;-90
2024/01/27 07:53:23;;;;;;;4.18;2.47;;;;;;;2.56;75.65;95682.09;5060580;28;20056;-85
2024/01/27 07:55:50;;;;;;;3.95;2.45;;;;;;;2.12;76.00;95543.47;5059222;28;20049;-85
2024/01/27 07:58:16;;;;;;;7.78;3.60;;;;;;;3.00;75.56;95720.47;5060269;28;20041;-86
2024/01/27 08:00:41;;;;;;;7.32;3.15;;;;;;;3.18;74.81;95727.63;5057085;28;20090;-87
2024/01/27 08:03:07;;;;;;;4.75;2.65;;;;;;;3.44;74.88;95797.38;5057590;28;20032;-85
2024/01/27 08:05:32;;;;;;;5.70;3.20;;;;;;;2.13;74.72;95589.56;5058779;28;20067;-86
2024/01/27 08:07:58;;;;;;;11.25;4.07;;;;;;;3.64;74.55;95831.31;5076752;28;20045;-86
2024/01/27 08:10:24;;;;;;;8.82;3.28;;;;;;;0.80;74.38;95371.72;5060630;28;20029;-87
2024/01/27 08:12:49;;;;;;;5.28;2.63;;;;;;;2.57;75.71;95680.28;5072106;28;20041;-86
2024/01/27 08:15:15;;;;;;;5.05;2.60;;;;;;;2.50;75.03;95637.63;5046221;28;20025;-88
2024/01/27 08:17:40;;;;;;;9.18;3.50;;;;;;;3.67;74.85;95804.66;5070251;28;20044;-86
2024/01/27 08:20:09;;;;;;;6.78;4.10;;;;;;;2.81;75.13;95690.00;5098252;22;20045;-81
2024/01/27 08:22:35;;;;;;;8.82;3.20;;;;;;;3.12;75.18;95731.09;5058137;28;20058;-81
2024/01/27 08:25:01;;;;;;;7.05;3.78;;;;;;;3.40;75.73;95746.38;5053642;28;20159;-81
2024/01/27 08:27:26;;;;;;;7.28;3.50;;;;;;;3.71;75.08;95835.50;5051895;28;20563;-81
2024/01/27 08:29:52;;;;;;;7.75;3.65;;;;;;;3.76;75.63;95813.84;5076528;28;20044;-81
2024/01/27 08:32:18;;;;;;;8.07;3.70;;;;;;;3.57;75.74;95767.63;5093625;28;20036;-81
2024/01/27 08:34:44;;;;;;;6.35;3.50;;;;;;;3.86;74.76;95780.06;5045920;28;20043;-81
2024/01/27 08:37:20;;;;;;;7.28;3.55;;;;;;;3.10;74.59;95689.38;5027316;28;20040;-80
2024/01/27 08:39:45;;;;;;;7.95;3.40;;;;;;;3.88;74.19;95801.66;5040896;28;20047;-81
2024/01/27 08:42:11;;;;;;;9.15;3.33;;;;;;;1.96;74.72;95494.28;5058973;28;20416;-82
2024/01/27 08:44:37;;;;;;;7.57;3.97;;;;;;;3.06;73.89;95614.81;5061542;28;20420;-81
2024/01/27 08:47:04;;;;;;;11.90;3.85;;;;;;;3.80;72.79;95750.25;5061864;28;20049;-82
2024/01/27 08:49:30;;;;;;;8.57;3.78;;;;;;;4.17;73.81;95781.78;5096349;28;20051;-91
2024/01/27 08:51:55;;;;;;;9.13;2.92;;;;;;;4.31;71.51;95774.56;5069173;28;20044;-87
2024/01/27 08:54:21;;;;;;;6.18;3.13;;;;;;;3.84;71.43;95692.91;5067342;28;20036;-89
2024/01/27 08:56:47;;;;;;;4.72;2.83;;;;;;;3.77;71.38;95726.28;5035071;28;20055;-89
2024/01/27 08:59:12;;;;;;;5.18;3.25;;;;;;;3.91;71.95;95721.69;5058212;28;20040;-87
2024/01/27 09:01:38;;;;;;;8.52;3.75;;;;;;;3.02;71.91;95570.91;5044040;28;20510;-88
2024/01/27 09:04:04;;;;;;;7.25;3.50;;;;;;;3.21;72.50;95562.03;5077351;28;20097;-87
2024/01/27 09:06:29;;;;;;;8.65;3.00;;;;;;;4.08;71.98;95697.25;5061569;28;20055;-87
2024/01/27 09:08:55;;;;;;;8.40;3.17;;;;;;;2.60;71.70;95509.66;5044016;28;20040;-89
2024/01/27 09:11:23;;;;;;;3.58;2.08;;;;;;;4.13;70.91;95743.84;5061686;28;20051;-86
2024/01/27 09:13:51;;;;;;;7.18;2.60;;;;;;;3.56;70.89;95601.59;5041655;28;20056;-87
2024/01/27 09:16:17;;;;;;;6.53;2.70;;;;;;;4.10;70.73;95757.44;5042220;28;20123;-89
2024/01/27 09:18:43;;;;;;;4.75;2.53;;;;;;;2.94;70.04;95569.38;5060471;28;20070;-88
2024/01/27 09:21:09;;;;;;;6.10;2.72;;;;;;;4.27;70.22;95782.84;5039449;28;20057;-88
2024/01/27 09:23:35;;;;;;;14.05;3.15;;;;;;;4.40;70.57;95766.16;5048021;28;20047;-88
2024/01/27 09:26:00;;;;;;;7.18;3.00;;;;;;;3.84;69.10;95656.97;5066635;28;20211;-89
2024/01/27 09:28:26;;;;;;;9.10;2.88;;;;;;;4.39;69.39;95745.38;5091060;28;20129;-87
2024/01/27 09:30:52;;;;;;;6.80;2.50;;;;;;;4.49;69.35;95730.72;5068182;28;20224;-87
2024/01/27 09:33:19;;;;;;;2.70;2.17;;;;;;;3.03;69.13;95568.09;5049433;28;20095;-89
2024/01/27 09:35:46;;;;;;;11.52;3.67;;;;;;;4.50;69.79;95769.06;5049532;28;20053;-87
2024/01/27 09:38:14;;;;;;;11.60;3.78;;;;;;;4.73;69.30;95763.09;5090137;28;20603;-86
2024/01/27 09:40:40;;;;;;;3.65;2.08;;;;;;;4.34;68.16;95725.03;5036776;28;20040;-87
2024/01/27 09:43:06;;;;;;;11.38;3.63;;;;;;;4.28;69.42;95676.81;5066245;28;20106;-87
2024/01/27 09:45:32;;;;;;;19.45;3.60;;;;;;;3.99;68.56;95661.84;5060146;28;20079;-88
2024/01/27 09:47:59;;;;;;;14.05;3.30;;;;;;;4.42;67.72;95779.88;5060177;28;20052;-88
2024/01/27 09:50:24;;;;;;;11.50;3.22;;;;;;;4.66;68.53;95788.66;5059032;28;20123;-87
2024/01/27 09:52:50;;;;;;;10.85;3.70;;;;;;;4.53;68.55;95768.63;5057377;28;20607;-86
2024/01/27 09:55:16;;;;;;;8.40;3.45;;;;;;;4.54;68.04;95772.06;5042302;28;20040;-87
2024/01/27 09:57:41;;;;;;;8.90;3.00;;;;;;;3.61;68.08;95677.00;5059725;28;20120;-81
2024/01/27 10:00:10;;;;;;;4.05;2.50;;;;;;;3.80;69.66;95737.16;5052742;28;20048;-80
2024/01/27 10:02:35;;;;;;;7.70;2.97;;;;;;;4.38;68.61;95814.66;5091887;28;20069;-82
2024/01/27 10:05:01;;;;;;;12.10;2.70;;;;;;;3.64;68.97;95687.88;5045047;28;20041;-84
2024/01/27 10:07:26;;;;;;;7.75;3.25;;;;;;;4.26;69.01;95815.41;5028707;28;20162;-83
2024/01/27 10:09:52;;;;;;;7.45;3.83;;;;;;;3.90;68.77;95760.25;5056285;28;20040;-83
2024/01/27 10:12:17;;;;;;;8.90;3.80;;;;;;;3.05;69.23;95667.44;5056927;28;20123;-83
2024/01/27 10:14:48;;;;;;;10.93;2.70;;;;;;;4.18;69.29;95807.81;5039770;28;20080;-84
2024/01/27 10:17:21;;;;;;;10.40;2.93;;;;;;;3.34;69.18;95668.59;5050520;28;20110;-82
2024/01/27 10:19:46;;;;;;;6.85;3.05;;;;;;;4.09;69.62;95838.00;5047957;28;20472;-82
2024/01/27 10:22:12;;;;;;;9.75;2.47;;;;;;;3.35;70.10;95722.66;5031441;28;20095;-83
2024/01/27 10:24:38;;;;;;;7.10;2.20;;;;;;;3.93;69.50;95850.84;5053325;28;20421;-83
2024/01/27 10:27:04;;;;;;;4.32;2.60;;;;;;;3.50;70.38;95770.31;5070354;28;20152;-83
2024/01/27 10:29:30;;;;;;;9.45;2.72;;;;;;;3.69;70.01;95798.19;5049208;28;20131;-83
2024/01/27 10:32:07;;;;;;;6.45;2.47;;;;;;;3.89;70.59;95829.50;5069589;28;20044;-82
2024/01/27 10:34:32;;;;;;;9.23;2.85;;;;;;;3.05;70.42;95719.84;5053077;28;20044;-83
2024/01/27 10:36:58;;;;;;;7.22;3.38;;;;;;;2.06;70.51;95576.50;5081938;28;20043;-83
2024/01/27 10:39:23;;;;;;;2.95;2.05;;;;;;;3.69;71.31;95829.66;5057145;28;20107;-82
2024/01/27 10:41:49;;;;;;;5.32;2.70;;;;;;;3.80;71.11;95859.66;5062065;28;20170;-83
2024/01/27 10:44:18;;;;;;;6.07;2.33;;;;;;;3.70;71.20;95841.75;5069801;28;20036;-83
2024/01/27 10:46:48;;;;;;;2.92;2.45;;;;;;;3.44;70.82;95798.19;5064618;28;20147;-82
2024/01/27 10:49:15;;;;;;;4.07;2.38;;;;;;;3.58;70.70;95809.38;5033922;28;20037;-83
2024/01/27 10:51:55;;;;;;;10.48;2.30;;;;;;;3.46;71.24;95795.34;5051459;28;20115;-83
2024/01/27 10:54:27;;;;;;;5.28;2.90;;;;;;;3.80;71.37;95847.34;5062802;28;20041;-83
2024/01/27 10:56:53;;;;;;;;;;;;;;;3.87;71.69;95912.88;5032615;28;20063;-82
2024/01/27 10:59:18;;;;;;;6.15;3.08;;;;;;;3.33;70.97;95788.41;5015768;28;20369;-83
2024/01/27 11:01:44;;;;;;;7.28;2.28;;;;;;;3.36;71.02;95780.09;5065691;28;20033;-82
2024/01/27 11:04:11;;;;;;;5.60;3.10;;;;;;;3.36;71.00;95790.56;5039320;28;20049;-82
2024/01/27 11:06:36;;;;;;;8.70;2.35;;;;;;;3.36;71.36;95837.75;5052493;28;20044;-82
2024/01/27 11:09:05;;;;;;;3.58;2.47;;;;;;;3.73;71.48;95906.94;5058507;28;20178;-81
2024/01/27 11:11:30;;;;;;;5.38;2.35;;;;;;;2.87;71.59;95883.00;5073469;28;20059;-81
2024/01/27 11:13:56;;;;;;;4.35;2.42;;;;;;;3.44;72.22;95862.94;5075051;28;20040;-82
2024/01/27 11:16:22;;;;;;;4.50;3.08;;;;;;;3.66;72.46;95895.66;5050087;28;20071;-81
2024/01/27 11:18:48;;;;;;;3.80;2.80;;;;;;;3.56;72.35;95878.78;5073932;28;20044;-82
2024/01/27 11:21:15;;;;;;;7.93;3.13;;;;;;;3.64;72.38;95828.69;5090864;28;20078;-82
2024/01/27 11:23:42;;;;;;;6.28;3.45;;;;;;;3.74;72.86;95856.03;5059139;28;20416;-82
2024/01/27 11:26:09;;;;;;;7.38;3.33;;;;;;;3.44;72.63;95800.78;5059254;28;20074;-80
2024/01/27 11:28:35;;;;;;;6.82;3.05;;;;;;;3.18;72.85;95776.59;5076475;28;20106;-80
2024/01/27 11:31:05;;;;;;;6.75;2.97;;;;;;;3.64;72.77;95884.59;5060133;28;20131;-81
2024/01/27 11:33:30;;;;;;;4.60;3.08;;;;;;;3.57;73.37;95875.97;5109037;28;20056;-79